createdAt,value
2023-01-19T00:01:37.969Z,71.28
2023-01-19T00:04:06.575Z,75.50
2023-01-19T00:06:34.852Z,73.20
2023-01-19T00:09:02.884Z,76.31
2023-01-19T00:11:30.814Z,84.63
2023-01-19T00:13:58.875Z,77.45
2023-01-19T00:16:28.175Z,71.79
2023-01-19T00:18:56.315Z,67.94
2023-01-19T00:21:24.635Z,68.40
2023-01-19T00:23:52.957Z,66.59
2023-01-19T00:26:22.765Z,71.50
2023-01-19T00:28:51.034Z,68.67
2023-01-19T00:31:21.798Z,66.08
2023-01-19T00:33:52.651Z,69.97
2023-01-19T00:36:21.016Z,76.11
2023-01-19T00:38:48.962Z,76.67
2023-01-19T00:41:17.293Z,76.28
2023-01-19T00:43:44.411Z,73.46
2023-01-19T00:46:12.352Z,73.68
2023-01-19T00:48:40.209Z,80.68
2023-01-19T00:51:09.398Z,90.06
2023-01-19T00:53:37.349Z,100.00
2023-01-19T00:56:05.490Z,96.27
2023-01-19T00:58:33.462Z,100.00
2023-01-19T01:01:03.736Z,93.49
2023-01-19T01:03:32.097Z,100.00
2023-01-19T01:06:00.116Z,100.00
2023-01-19T01:08:29.708Z,100.00
2023-01-19T01:10:58.046Z,100.00
2023-01-19T01:13:27.878Z,100.00
2023-01-19T01:15:56.938Z,100.00
2023-01-19T01:18:25.015Z,94.68
2023-01-19T01:20:55.219Z,95.57
2023-01-19T01:23:24.111Z,100.00
2023-01-19T01:25:53.364Z,100.00
2023-01-19T01:28:21.302Z,100.00
2023-01-19T01:30:49.381Z,100.00
2023-01-19T01:33:40.436Z,100.00
2023-01-19T01:36:05.769Z,100.00
2023-01-19T01:38:35.026Z,100.00
2023-01-19T01:41:04.401Z,95.55
2023-01-19T01:43:44.816Z,82.73
2023-01-19T01:46:15.443Z,72.10
2023-01-19T01:48:46.669Z,68.17
2023-01-19T01:51:26.182Z,66.65
2023-01-19T01:54:00.117Z,75.99
2023-01-19T01:56:33.939Z,78.67
2023-01-19T01:59:06.727Z,89.50
2023-01-19T02:01:53.654Z,94.16
2023-01-19T02:04:22.282Z,89.53
2023-01-19T02:07:08.054Z,83.55
2023-01-19T02:09:55.755Z,88.15
2023-01-19T02:12:43.340Z,96.37
2023-01-19T02:15:20.295Z,100.00
2023-01-19T02:17:48.365Z,100.00
2023-01-19T02:20:17.358Z,100.00
2023-01-19T02:22:50.869Z,100.00
2023-01-19T02:25:20.960Z,100.00
2023-01-19T02:27:49.342Z,100.00
2023-01-19T02:30:18.199Z,100.00
2023-01-19T02:32:46.194Z,100.00
2023-01-19T02:35:14.592Z,100.00
2023-01-19T02:37:43.398Z,100.00
2023-01-19T02:40:14.358Z,76.29
2023-01-19T02:42:45.327Z,100.00
2023-01-19T02:45:15.201Z,87.51
2023-01-19T02:47:45.563Z,86.77
2023-01-19T02:50:43.615Z,88.12
2023-01-19T02:53:45.806Z,100.00
2023-01-19T02:56:28.523Z,100.00
2023-01-19T02:59:02.647Z,93.61
2023-01-19T03:01:37.555Z,100.00
2023-01-19T03:04:11.216Z,97.52
2023-01-19T03:06:46.133Z,100.00
2023-01-19T03:09:21.060Z,92.93
2023-01-19T03:11:53.339Z,95.52
2023-01-19T03:14:25.173Z,100.00
2023-01-19T03:16:55.949Z,100.00
2023-01-19T03:19:27.209Z,100.00
2023-01-19T03:21:59.217Z,100.00
2023-01-19T03:24:30.911Z,100.00
2023-01-19T03:27:02.299Z,100.00
2023-01-19T03:29:34.818Z,100.00
2023-01-19T03:32:05.353Z,93.16
2023-01-19T03:34:34.153Z,85.20
2023-01-19T03:37:05.412Z,100.00
2023-01-19T03:39:33.529Z,97.95
2023-01-19T03:42:04.484Z,100.00
2023-01-19T03:44:37.036Z,100.00
2023-01-19T03:47:06.015Z,100.00
2023-01-19T03:49:34.416Z,100.00
2023-01-19T03:52:02.343Z,100.00
2023-01-19T03:54:30.564Z,100.00
2023-01-19T03:56:58.848Z,100.00
2023-01-19T03:59:26.999Z,100.00
2023-01-19T04:01:56.283Z,100.00
2023-01-19T04:04:25.498Z,91.70
2023-01-19T04:06:53.487Z,100.00
2023-01-19T04:09:21.309Z,87.98
2023-01-19T04:11:49.149Z,98.25
2023-01-19T04:14:17.076Z,100.00
2023-01-19T04:16:45.158Z,100.00
2023-01-19T04:19:14.675Z,100.00
2023-01-19T04:21:42.580Z,100.00
2023-01-19T04:24:10.847Z,96.26
2023-01-19T04:26:38.687Z,92.42
2023-01-19T04:29:06.590Z,99.22
2023-01-19T04:31:35.637Z,100.00
2023-01-19T04:34:03.739Z,100.00
2023-01-19T04:36:32.938Z,100.00
2023-01-19T04:39:00.754Z,100.00
2023-01-19T04:41:30.270Z,100.00
2023-01-19T04:43:58.856Z,92.93
2023-01-19T04:46:26.704Z,96.05
2023-01-19T04:48:54.782Z,94.59
2023-01-19T04:51:22.637Z,99.91
2023-01-19T04:53:51.905Z,100.00
2023-01-19T04:56:19.738Z,100.00
2023-01-19T04:58:47.643Z,100.00
2023-01-19T05:01:15.743Z,98.90
2023-01-19T05:03:43.804Z,99.98
2023-01-19T05:06:11.818Z,98.51
2023-01-19T05:08:39.902Z,99.35
2023-01-19T05:11:09.125Z,100.00
2023-01-19T05:13:37.563Z,100.00
2023-01-19T05:16:06.604Z,100.00
2023-01-19T05:18:37.343Z,100.00
2023-01-19T05:21:05.694Z,100.00
2023-01-19T05:23:33.898Z,100.00
2023-01-19T05:26:02.893Z,100.00
2023-01-19T05:28:33.254Z,100.00
2023-01-19T05:31:01.256Z,100.00
2023-01-19T05:33:29.223Z,100.00
2023-01-19T05:35:57.176Z,100.00
2023-01-19T05:38:34.640Z,100.00
2023-01-19T05:41:03.120Z,100.00
2023-01-19T05:43:32.514Z,100.00
2023-01-19T05:46:00.337Z,100.00
2023-01-19T05:48:28.256Z,100.00
2023-01-19T05:50:59.296Z,100.00
2023-01-19T05:53:27.387Z,100.00
2023-01-19T05:55:55.399Z,100.00
2023-01-19T05:58:23.253Z,99.25
2023-01-19T06:00:52.509Z,99.87
2023-01-19T06:03:20.449Z,100.00
2023-01-19T06:05:48.600Z,100.00
2023-01-19T06:08:16.421Z,97.07
2023-01-19T06:10:44.293Z,91.93
2023-01-19T06:13:12.072Z,83.97
2023-01-19T06:15:39.877Z,96.06
2023-01-19T06:18:09.186Z,84.33
2023-01-19T06:20:37.567Z,97.79
2023-01-19T06:23:05.553Z,98.69
2023-01-19T06:25:33.417Z,88.30
2023-01-19T06:28:01.364Z,75.77
2023-01-19T06:30:29.265Z,81.76
2023-01-19T06:32:57.069Z,83.49
2023-01-19T06:35:26.979Z,92.83
2023-01-19T06:37:54.867Z,86.19
2023-01-19T06:40:25.074Z,72.00
2023-01-19T06:42:53.117Z,82.31
2023-01-19T06:45:20.934Z,91.93
2023-01-19T06:47:50.882Z,95.20
2023-01-19T06:50:18.684Z,70.48
2023-01-19T06:52:50.847Z,78.73
2023-01-19T06:55:19.058Z,96.28
2023-01-19T06:57:47.628Z,83.59
2023-01-19T07:00:17.019Z,99.28
2023-01-19T07:02:45.101Z,97.58
2023-01-19T07:05:14.362Z,88.48
2023-01-19T07:07:44.968Z,77.10
2023-01-19T07:10:15.680Z,76.00
2023-01-19T07:12:46.388Z,88.12
2023-01-19T07:15:15.050Z,94.57
2023-01-19T07:17:43.132Z,97.13
2023-01-19T07:20:13.049Z,91.56
2023-01-19T07:22:41.278Z,93.03
2023-01-19T07:25:09.831Z,100.00
2023-01-19T07:27:40.486Z,92.21
2023-01-19T07:30:09.728Z,85.85
2023-01-19T07:32:37.854Z,90.34
2023-01-19T07:35:09.414Z,97.34
2023-01-19T07:37:37.466Z,91.35
2023-01-19T07:40:06.370Z,85.42
2023-01-19T07:42:34.181Z,88.38
2023-01-19T07:45:04.257Z,83.58
2023-01-19T07:47:32.329Z,92.00
2023-01-19T07:50:00.096Z,94.80
2023-01-19T07:52:28.183Z,100.00
2023-01-19T07:54:56.097Z,95.04
2023-01-19T07:57:24.078Z,92.24
2023-01-19T07:59:51.886Z,89.20
2023-01-19T08:02:21.180Z,99.55
2023-01-19T08:04:49.048Z,100.00
2023-01-19T08:07:16.892Z,94.02
2023-01-19T08:09:45.131Z,100.00
2023-01-19T08:12:13.015Z,100.00
2023-01-19T08:14:40.936Z,100.00
2023-01-19T08:17:08.892Z,100.00
2023-01-19T08:19:40.667Z,100.00
2023-01-19T08:22:09.267Z,100.00
2023-01-19T08:24:37.123Z,100.00
2023-01-19T08:27:06.014Z,100.00
2023-01-19T08:29:34.048Z,93.14
2023-01-19T08:32:03.058Z,100.00
2023-01-19T08:34:31.977Z,100.00
2023-01-19T08:37:01.284Z,100.00
2023-01-19T08:39:29.157Z,100.00
2023-01-19T08:41:56.936Z,100.00
2023-01-19T08:44:24.747Z,100.00
2023-01-19T08:46:52.520Z,100.00
2023-01-19T08:49:20.662Z,100.00
2023-01-19T08:51:49.075Z,91.70
2023-01-19T08:54:18.762Z,100.00
2023-01-19T08:56:46.755Z,100.00
2023-01-19T08:59:14.757Z,100.00
2023-01-19T09:01:42.755Z,99.90
2023-01-19T09:04:10.731Z,96.37
2023-01-19T09:06:41.521Z,100.00
2023-01-19T09:09:09.392Z,100.00
2023-01-19T09:11:38.667Z,100.00
2023-01-19T09:14:06.944Z,100.00
2023-01-19T09:16:34.910Z,97.72
2023-01-19T09:19:03.068Z,98.14
2023-01-19T09:21:30.871Z,92.16
2023-01-19T09:24:00.732Z,86.10
2023-01-19T09:26:28.581Z,100.00
2023-01-19T09:28:59.456Z,100.00
2023-01-19T09:31:27.499Z,92.77
2023-01-19T09:33:55.799Z,100.00
2023-01-19T09:36:24.281Z,100.00
2023-01-19T09:38:52.313Z,100.00
2023-01-19T09:41:22.533Z,99.33
2023-01-19T09:43:54.258Z,100.00
2023-01-19T09:46:28.962Z,100.00
2023-01-19T09:48:58.153Z,100.00
2023-01-19T09:51:28.112Z,100.00
2023-01-19T09:54:01.072Z,100.00
2023-01-19T09:56:30.756Z,98.91
2023-01-19T09:58:59.967Z,100.00
2023-01-19T10:01:35.752Z,84.15
2023-01-19T10:04:27.642Z,73.61
2023-01-19T10:07:03.117Z,84.06
2023-01-19T10:09:34.613Z,75.40
2023-01-19T10:12:06.261Z,74.20
2023-01-19T10:14:38.107Z,75.35
2023-01-19T10:17:17.441Z,77.66
2023-01-19T10:19:48.017Z,76.90
2023-01-19T10:22:22.080Z,88.67
2023-01-19T10:24:53.318Z,92.80
2023-01-19T10:27:25.118Z,85.75
2023-01-19T10:29:53.020Z,87.20
2023-01-19T10:32:26.255Z,82.56
2023-01-19T10:34:57.109Z,75.41
2023-01-19T10:37:30.784Z,74.75
2023-01-19T10:40:02.318Z,82.14
2023-01-19T10:42:31.921Z,87.56
2023-01-19T10:45:00.062Z,74.28
2023-01-19T10:47:33.446Z,68.02
2023-01-19T10:50:01.423Z,62.73
2023-01-19T10:52:32.138Z,71.31
2023-01-19T10:55:01.350Z,97.69
2023-01-19T10:57:30.627Z,80.79
2023-01-19T10:59:58.984Z,72.34
2023-01-19T11:02:28.068Z,70.96
2023-01-19T11:04:59.058Z,91.27
2023-01-19T11:07:30.216Z,68.05
2023-01-19T11:10:21.915Z,64.89
2023-01-19T11:12:57.591Z,68.14
2023-01-19T11:15:28.570Z,71.09
2023-01-19T11:17:56.805Z,73.27
2023-01-19T11:20:28.442Z,92.45
2023-01-19T11:23:07.050Z,70.68
2023-01-19T11:25:36.535Z,67.43
2023-01-19T11:28:05.616Z,66.83
2023-01-19T11:30:36.625Z,66.63
2023-01-19T11:33:06.458Z,86.58
2023-01-19T11:35:38.825Z,71.03
2023-01-19T11:38:18.065Z,68.75
2023-01-19T11:40:55.558Z,75.24
2023-01-19T11:43:25.232Z,68.75
2023-01-19T11:46:00.512Z,74.17
2023-01-19T11:48:53.155Z,86.24
2023-01-19T11:51:24.097Z,68.92
2023-01-19T11:53:53.894Z,71.17
2023-01-19T11:56:24.838Z,79.84
2023-01-19T11:58:52.734Z,78.14
2023-01-19T12:01:24.599Z,67.29
2023-01-19T12:03:56.541Z,72.86
2023-01-19T12:06:29.824Z,63.83
2023-01-19T12:09:09.303Z,71.44
2023-01-19T12:11:39.976Z,62.23
2023-01-19T12:14:18.511Z,57.28
2023-01-19T12:16:48.620Z,57.07
2023-01-19T12:19:19.973Z,57.68
2023-01-19T12:21:49.496Z,57.24
2023-01-19T12:24:18.666Z,59.86
2023-01-19T12:27:03.490Z,61.43
2023-01-19T12:29:39.223Z,64.76
2023-01-19T12:32:21.184Z,71.85
2023-01-19T12:34:49.627Z,65.77
2023-01-19T12:37:36.942Z,57.60
2023-01-19T12:40:19.394Z,56.35
2023-01-19T12:42:48.847Z,51.15
2023-01-19T12:45:18.553Z,55.62
2023-01-19T12:47:53.084Z,52.83
2023-01-19T12:50:23.449Z,58.05
2023-01-19T12:52:57.182Z,63.02
2023-01-19T12:55:28.151Z,52.65
2023-01-19T12:57:59.490Z,51.96
2023-01-19T13:00:34.260Z,55.28
2023-01-19T13:03:03.259Z,51.86
2023-01-19T13:05:58.080Z,40.24
2023-01-19T13:08:57.165Z,37.51
2023-01-19T13:11:27.104Z,37.21
2023-01-19T13:14:34.336Z,35.71
2023-01-19T13:17:05.896Z,34.30
2023-01-19T13:19:48.372Z,34.23
2023-01-19T13:22:51.393Z,36.23
2023-01-19T13:25:31.347Z,36.12
2023-01-19T13:27:59.553Z,38.14
2023-01-19T13:30:29.150Z,39.34
2023-01-19T13:33:12.113Z,37.44
2023-01-19T13:35:40.030Z,38.35
2023-01-19T13:38:08.899Z,40.78
2023-01-19T13:40:39.996Z,38.51
2023-01-19T13:43:16.344Z,40.04
2023-01-19T13:45:51.161Z,41.14
2023-01-19T13:48:22.494Z,38.44
2023-01-19T13:51:05.136Z,37.39
2023-01-19T13:53:33.581Z,40.62
2023-01-19T13:56:28.996Z,40.32
2023-01-19T13:59:09.891Z,40.87
2023-01-19T14:01:39.326Z,41.98
2023-01-19T14:04:07.499Z,41.46
2023-01-19T14:06:41.242Z,40.70
2023-01-19T14:09:16.527Z,40.64
2023-01-19T14:11:47.195Z,38.10
2023-01-19T14:14:26.679Z,42.92
2023-01-19T14:16:55.022Z,41.90
2023-01-19T14:19:23.766Z,40.69
2023-01-19T14:22:02.936Z,39.12
2023-01-19T14:24:32.909Z,42.32
2023-01-19T14:27:19.386Z,40.70
2023-01-19T14:29:50.418Z,39.52
2023-01-19T14:32:20.529Z,40.73
2023-01-19T14:34:50.216Z,43.49
2023-01-19T14:37:21.208Z,45.33
2023-01-19T14:39:51.222Z,49.09
2023-01-19T14:42:24.747Z,53.58
2023-01-19T14:44:53.940Z,59.65
2023-01-19T14:47:31.980Z,66.32
2023-01-19T14:50:04.889Z,70.70
2023-01-19T14:52:36.014Z,68.81
2023-01-19T14:55:06.852Z,63.44
2023-01-19T14:57:37.897Z,64.36
2023-01-19T15:00:17.713Z,72.12
2023-01-19T15:02:46.171Z,72.30
2023-01-19T15:05:14.207Z,67.90
2023-01-19T15:07:44.729Z,64.23
2023-01-19T15:10:17.450Z,69.46
2023-01-19T15:12:46.715Z,69.44
2023-01-19T15:15:16.522Z,64.17
2023-01-19T15:17:44.804Z,65.11
2023-01-19T15:20:16.082Z,65.77
2023-01-19T15:22:44.634Z,66.30
2023-01-19T15:25:15.613Z,69.76
2023-01-19T15:27:43.868Z,68.07
2023-01-19T15:30:17.695Z,84.85
2023-01-19T15:32:45.910Z,83.78
2023-01-19T15:35:15.553Z,77.99
2023-01-19T15:37:43.433Z,79.17
2023-01-19T15:40:12.318Z,71.67
2023-01-19T15:42:40.571Z,74.67
2023-01-19T15:45:38.038Z,70.60
2023-01-19T15:48:07.430Z,76.61
2023-01-19T15:50:37.250Z,70.07
2023-01-19T15:53:05.344Z,72.01
2023-01-19T15:55:33.339Z,75.16
2023-01-19T15:58:02.435Z,64.03
2023-01-19T16:00:31.300Z,71.45
2023-01-19T16:03:01.554Z,78.44
2023-01-19T16:05:41.847Z,65.25
2023-01-19T16:08:10.838Z,69.61
2023-01-19T16:10:38.982Z,72.26
2023-01-19T16:13:06.934Z,71.20
2023-01-19T16:15:35.794Z,74.24
2023-01-19T16:18:05.950Z,84.63
2023-01-19T16:20:33.931Z,86.03
2023-01-19T16:23:17.026Z,70.22
2023-01-19T16:25:45.440Z,75.94
2023-01-19T16:28:13.414Z,80.03
2023-01-19T16:30:41.332Z,68.98
2023-01-19T16:33:13.787Z,68.18
2023-01-19T16:35:41.682Z,70.25
2023-01-19T16:38:10.281Z,63.64
2023-01-19T16:40:38.475Z,64.03
2023-01-19T16:43:06.307Z,63.38
2023-01-19T16:45:34.329Z,64.98
2023-01-19T16:48:02.141Z,66.45
2023-01-19T16:50:31.398Z,61.91
2023-01-19T16:52:59.312Z,61.05
2023-01-19T16:55:27.141Z,59.13
2023-01-19T16:57:56.495Z,62.96
2023-01-19T17:00:24.552Z,62.33
2023-01-19T17:02:52.490Z,63.19
2023-01-19T17:05:20.323Z,73.17
2023-01-19T17:07:49.526Z,70.79
2023-01-19T17:10:17.542Z,67.40
2023-01-19T17:12:45.561Z,66.65
2023-01-19T17:15:13.377Z,64.29
2023-01-19T17:17:42.020Z,65.49
2023-01-19T17:20:11.246Z,59.45
2023-01-19T17:22:39.293Z,57.62
2023-01-19T17:25:09.531Z,57.40
2023-01-19T17:27:37.424Z,54.63
2023-01-19T17:30:06.191Z,54.51
2023-01-19T17:32:33.994Z,54.33
2023-01-19T17:35:01.824Z,53.62
2023-01-19T17:37:29.833Z,53.67
2023-01-19T17:39:57.653Z,52.52
2023-01-19T17:42:26.932Z,52.19
2023-01-19T17:44:54.761Z,53.53
2023-01-19T17:47:25.797Z,53.27
2023-01-19T17:49:53.714Z,52.69
2023-01-19T17:52:21.512Z,53.27
2023-01-19T17:54:49.338Z,55.56
2023-01-19T17:57:17.276Z,55.43
2023-01-19T17:59:47.212Z,54.73
2023-01-19T18:02:15.090Z,54.41
2023-01-19T18:04:43.186Z,53.63
2023-01-19T18:07:11.030Z,56.42
2023-01-19T18:09:38.864Z,57.29
2023-01-19T18:12:07.077Z,56.86
2023-01-19T18:14:34.978Z,57.04
2023-01-19T18:17:04.158Z,54.26
2023-01-19T18:19:32.045Z,54.47
2023-01-19T18:21:59.884Z,54.04
2023-01-19T18:24:27.714Z,57.58
2023-01-19T18:26:55.828Z,54.59
2023-01-19T18:29:23.722Z,54.43
2023-01-19T18:31:51.648Z,58.41
2023-01-19T18:34:20.867Z,55.69
2023-01-19T18:36:48.700Z,53.88
2023-01-19T18:39:16.534Z,54.02
2023-01-19T18:41:44.381Z,54.51
2023-01-19T18:44:12.964Z,55.26
2023-01-19T18:46:41.599Z,61.32
2023-01-19T18:49:09.610Z,59.42
2023-01-19T18:51:40.414Z,61.82
2023-01-19T18:54:08.741Z,59.67
2023-01-19T18:56:36.568Z,62.56
2023-01-19T18:59:04.972Z,60.51
2023-01-19T19:01:34.950Z,57.99
2023-01-19T19:04:03.227Z,58.24
2023-01-19T19:06:31.012Z,58.30
2023-01-19T19:09:00.338Z,62.55
2023-01-19T19:11:28.455Z,59.67
2023-01-19T19:13:57.863Z,59.85
2023-01-19T19:16:25.840Z,57.39
2023-01-19T19:18:53.841Z,61.23
2023-01-19T19:21:23.982Z,58.40
2023-01-19T19:23:52.860Z,58.77
2023-01-19T19:26:22.146Z,59.05
2023-01-19T19:28:51.655Z,56.46
2023-01-19T19:31:21.463Z,55.19
2023-01-19T19:33:50.940Z,55.06
2023-01-19T19:36:19.967Z,54.84
2023-01-19T19:38:48.292Z,53.99
2023-01-19T19:41:18.352Z,54.26
2023-01-19T19:43:47.730Z,54.25
2023-01-19T19:46:16.966Z,52.62
2023-01-19T19:48:44.910Z,53.23
2023-01-19T19:51:18.353Z,52.51
2023-01-19T19:53:47.491Z,52.44
2023-01-19T19:56:16.428Z,54.50
2023-01-19T19:58:44.282Z,53.34
2023-01-19T20:01:15.308Z,53.32
2023-01-19T20:03:43.583Z,57.34
2023-01-19T20:06:13.485Z,54.57
2023-01-19T20:08:41.827Z,52.60
2023-01-19T20:11:13.018Z,51.94
2023-01-19T20:13:42.344Z,52.75
2023-01-19T20:16:14.314Z,52.80
2023-01-19T20:18:43.472Z,52.32
2023-01-19T20:21:12.733Z,53.80
2023-01-19T20:23:40.606Z,62.75
2023-01-19T20:26:09.721Z,64.01
2023-01-19T20:28:38.066Z,64.20
2023-01-19T20:31:10.897Z,59.29
2023-01-19T20:33:41.029Z,62.05
2023-01-19T20:36:09.821Z,61.69
2023-01-19T20:38:37.811Z,63.35
2023-01-19T20:41:06.489Z,58.71
2023-01-19T20:43:34.809Z,57.31
2023-01-19T20:46:02.669Z,57.44
2023-01-19T20:48:30.600Z,62.68
2023-01-19T20:51:00.655Z,63.43
2023-01-19T20:53:29.406Z,77.89
2023-01-19T20:55:57.400Z,75.41
2023-01-19T20:58:25.463Z,71.66
2023-01-19T21:00:53.461Z,80.24
2023-01-19T21:03:21.312Z,84.74
2023-01-19T21:05:49.300Z,77.12
2023-01-19T21:08:18.571Z,83.63
2023-01-19T21:10:46.452Z,73.49
2023-01-19T21:13:14.337Z,64.59
2023-01-19T21:15:42.150Z,66.69
2023-01-19T21:18:09.969Z,71.91
2023-01-19T21:20:37.805Z,75.22
2023-01-19T21:23:05.672Z,64.51
2023-01-19T21:25:34.844Z,75.99
2023-01-19T21:28:02.707Z,68.97
2023-01-19T21:30:30.609Z,71.11
2023-01-19T21:32:58.488Z,63.37
2023-01-19T21:35:26.387Z,68.95
2023-01-19T21:37:54.220Z,70.30
2023-01-19T21:40:22.093Z,74.76
2023-01-19T21:43:06.583Z,72.29
2023-01-19T21:45:34.772Z,71.49
2023-01-19T21:48:02.517Z,72.24
2023-01-19T21:50:30.350Z,82.74
2023-01-19T21:52:58.264Z,79.98
2023-01-19T21:55:26.204Z,67.10
2023-01-19T21:57:54.275Z,66.90
2023-01-19T22:00:24.100Z,73.04
2023-01-19T22:03:03.173Z,84.27
2023-01-19T22:05:36.561Z,78.07
2023-01-19T22:08:05.102Z,86.54
2023-01-19T22:10:33.178Z,68.26
2023-01-19T22:13:01.175Z,86.47
2023-01-19T22:15:31.317Z,88.35
2023-01-19T22:17:59.337Z,86.99
2023-01-19T22:20:27.464Z,73.05
2023-01-19T22:22:55.284Z,64.94
2023-01-19T22:25:27.612Z,66.50
2023-01-19T22:27:55.563Z,80.88
2023-01-19T22:30:23.622Z,83.06
2023-01-19T22:32:54.065Z,98.02
2023-01-19T22:35:22.244Z,90.98
2023-01-19T22:37:50.128Z,74.34
2023-01-19T22:40:18.632Z,65.79
2023-01-19T22:42:47.779Z,69.09
2023-01-19T22:45:16.133Z,74.80
2023-01-19T22:47:44.423Z,77.41
2023-01-19T22:50:13.732Z,64.60
2023-01-19T22:52:42.454Z,79.58
2023-01-19T22:55:11.671Z,85.46
2023-01-19T22:57:40.007Z,73.36
2023-01-19T23:00:09.792Z,77.18
2023-01-19T23:02:37.810Z,72.10
2023-01-19T23:05:06.458Z,75.35
2023-01-19T23:07:35.843Z,85.43
2023-01-19T23:10:03.666Z,85.62
2023-01-19T23:12:31.865Z,76.99
2023-01-19T23:14:59.760Z,100.00
2023-01-19T23:17:27.768Z,100.00
2023-01-19T23:19:56.090Z,98.25
2023-01-19T23:22:24.074Z,95.07
2023-01-19T23:24:53.545Z,100.00
2023-01-19T23:27:21.358Z,95.89
2023-01-19T23:29:49.370Z,85.96
2023-01-19T23:32:17.366Z,100.00
2023-01-19T23:34:45.224Z,100.00
2023-01-19T23:37:13.132Z,100.00
2023-01-19T23:39:40.959Z,96.38
2023-01-19T23:42:10.215Z,100.00
2023-01-19T23:44:38.120Z,97.87
2023-01-19T23:47:06.034Z,100.00
2023-01-19T23:49:33.894Z,88.70
2023-01-19T23:52:01.706Z,89.64
2023-01-19T23:54:29.520Z,94.65
2023-01-19T23:56:57.368Z,84.31
2023-01-19T23:59:26.575Z,100.00
